sensor_id;sensor_type;location;lat;lon;timestamp;pressure;altitude;pressure_sealevel;temperature;humidity
53647;BME280;39550;52.230;5.194;2023-07-31T00:01:21;100779.75;;;17.59;76.58
53647;BME280;39550;52.230;5.194;2023-07-31T00:03:47;100768.50;;;17.59;76.62
53647;BME280;39550;52.230;5.194;2023-07-31T00:06:12;100772.81;;;17.58;76.78
53647;BME280;39550;52.230;5.194;2023-07-31T00:08:38;100767.66;;;17.57;76.91
53647;BME280;39550;52.230;5.194;2023-07-31T00:11:03;100766.78;;;17.58;76.71
53647;BME280;39550;52.230;5.194;2023-07-31T00:13:29;100764.97;;;17.60;76.94
53647;BME280;39550;52.230;5.194;2023-07-31T00:15:54;100759.81;;;17.58;76.74
53647;BME280;39550;52.230;5.194;2023-07-31T00:18:20;100766.81;;;17.56;76.91
53647;BME280;39550;52.230;5.194;2023-07-31T00:20:45;100770.25;;;17.57;76.52
53647;BME280;39550;52.230;5.194;2023-07-31T00:23:11;100764.19;;;17.56;76.98
53647;BME280;39550;52.230;5.194;2023-07-31T00:25:36;100752.06;;;17.55;77.19
53647;BME280;39550;52.230;5.194;2023-07-31T00:28:02;100742.56;;;17.52;77.10
53647;BME280;39550;52.230;5.194;2023-07-31T00:30:27;100753.84;;;17.53;77.28
53647;BME280;39550;52.230;5.194;2023-07-31T00:32:53;100756.50;;;17.51;77.48
53647;BME280;39550;52.230;5.194;2023-07-31T00:35:18;100752.13;;;17.52;77.70
53647;BME280;39550;52.230;5.194;2023-07-31T00:37:43;100752.13;;;17.52;77.56
53647;BME280;39550;52.230;5.194;2023-07-31T00:40:09;100743.47;;;17.50;77.53
53647;BME280;39550;52.230;5.194;2023-07-31T00:42:35;100736.50;;;17.52;77.69
53647;BME280;39550;52.230;5.194;2023-07-31T00:45:00;100753.91;;;17.50;78.02
53647;BME280;39550;52.230;5.194;2023-07-31T00:47:26;100745.25;;;17.49;77.83
53647;BME280;39550;52.230;5.194;2023-07-31T00:49:52;100744.34;;;17.50;78.31
53647;BME280;39550;52.230;5.194;2023-07-31T00:52:18;100741.78;;;17.49;78.11
53647;BME280;39550;52.230;5.194;2023-07-31T00:54:43;100748.75;;;17.47;78.67
53647;BME280;39550;52.230;5.194;2023-07-31T00:57:09;100740.16;;;17.45;78.29
53647;BME280;39550;52.230;5.194;2023-07-31T00:59:34;100747.91;;;17.46;78.80
53647;BME280;39550;52.230;5.194;2023-07-31T01:02:00;100747.03;;;17.46;79.05
53647;BME280;39550;52.230;5.194;2023-07-31T01:04:26;100754.91;;;17.44;79.01
53647;BME280;39550;52.230;5.194;2023-07-31T01:07:01;100747.13;;;17.43;78.85
53647;BME280;39550;52.230;5.194;2023-07-31T01:09:36;100755.81;;;17.42;79.03
53647;BME280;39550;52.230;5.194;2023-07-31T01:12:04;100742.78;;;17.42;79.08
53647;BME280;39550;52.230;5.194;2023-07-31T01:14:32;100744.56;;;17.41;79.23
53647;BME280;39550;52.230;5.194;2023-07-31T01:16:57;100741.97;;;17.40;79.24
53647;BME280;39550;52.230;5.194;2023-07-31T01:19:24;100734.09;;;17.43;79.31
53647;BME280;39550;52.230;5.194;2023-07-31T01:27:29;100727.19;;;17.40;79.66
53647;BME280;39550;52.230;5.194;2023-07-31T01:30:00;100737.63;;;17.40;79.27
53647;BME280;39550;52.230;5.194;2023-07-31T01:32:29;100732.44;;;17.39;79.54
53647;BME280;39550;52.230;5.194;2023-07-31T01:34:57;100735.06;;;17.39;79.51
53647;BME280;39550;52.230;5.194;2023-07-31T01:37:28;100730.84;;;17.33;79.23
53647;BME280;39550;52.230;5.194;2023-07-31T01:39:54;100733.34;;;17.38;79.59
53647;BME280;39550;52.230;5.194;2023-07-31T01:42:20;100732.47;;;17.37;79.48
53647;BME280;39550;52.230;5.194;2023-07-31T01:44:45;100731.66;;;17.36;79.34
53647;BME280;39550;52.230;5.194;2023-07-31T01:47:11;100731.66;;;17.36;79.80
53647;BME280;39550;52.230;5.194;2023-07-31T01:49:36;100729.84;;;17.39;79.46
53647;BME280;39550;52.230;5.194;2023-07-31T01:52:02;100722.94;;;17.36;79.23
53647;BME280;39550;52.230;5.194;2023-07-31T01:54:28;100716.00;;;17.36;79.34
53647;BME280;39550;52.230;5.194;2023-07-31T01:56:53;100723.81;;;17.36;79.16
53647;BME280;39550;52.230;5.194;2023-07-31T01:59:19;100716.84;;;17.37;79.80
53647;BME280;39550;52.230;5.194;2023-07-31T02:01:44;100718.66;;;17.35;79.35
53647;BME280;39550;52.230;5.194;2023-07-31T02:04:09;100698.75;;;17.32;79.53
53647;BME280;39550;52.230;5.194;2023-07-31T02:06:35;100709.09;;;17.35;79.51
53647;BME280;39550;52.230;5.194;2023-07-31T02:09:00;100702.22;;;17.31;79.81
53647;BME280;39550;52.230;5.194;2023-07-31T02:11:26;100695.25;;;17.33;79.62
53647;BME280;39550;52.230;5.194;2023-07-31T02:13:51;100683.97;;;17.33;79.64
53647;BME280;39550;52.230;5.194;2023-07-31T02:16:17;100680.50;;;17.32;79.74
53647;BME280;39550;52.230;5.194;2023-07-31T02:18:42;100677.97;;;17.29;79.71
53647;BME280;39550;52.230;5.194;2023-07-31T02:21:07;100686.59;;;17.31;79.52
53647;BME280;39550;52.230;5.194;2023-07-31T02:23:33;100675.34;;;17.31;80.02
53647;BME280;39550;52.230;5.194;2023-07-31T02:25:58;100674.47;;;17.30;80.00
53647;BME280;39550;52.230;5.194;2023-07-31T02:28:24;100674.47;;;17.30;80.05
53647;BME280;39550;52.230;5.194;2023-07-31T02:30:50;100681.38;;;17.31;80.14
53647;BME280;39550;52.230;5.194;2023-07-31T02:33:17;100678.81;;;17.30;79.61
53647;BME280;39550;52.230;5.194;2023-07-31T02:35:42;100676.34;;;17.25;80.07
53647;BME280;39550;52.230;5.194;2023-07-31T02:38:08;100683.13;;;17.32;79.95
53647;BME280;39550;52.230;5.194;2023-07-31T02:40:34;100679.66;;;17.30;80.01
53647;BME280;39550;52.230;5.194;2023-07-31T02:42:59;100675.38;;;17.29;79.79
53647;BME280;39550;52.230;5.194;2023-07-31T02:45:25;100667.56;;;17.29;79.72
53647;BME280;39550;52.230;5.194;2023-07-31T02:47:51;100667.56;;;17.29;79.51
53647;BME280;39550;52.230;5.194;2023-07-31T02:50:16;100665.81;;;17.30;80.06
53647;BME280;39550;52.230;5.194;2023-07-31T02:52:42;100654.53;;;17.28;79.66
53647;BME280;39550;52.230;5.194;2023-07-31T02:55:07;100660.63;;;17.28;79.87
53647;BME280;39550;52.230;5.194;2023-07-31T02:57:33;100650.28;;;17.25;79.84
53647;BME280;39550;52.230;5.194;2023-07-31T02:59:58;100658.91;;;17.27;80.16
53647;BME280;39550;52.230;5.194;2023-07-31T03:02:24;100661.53;;;17.27;80.15
53647;BME280;39550;52.230;5.194;2023-07-31T03:04:49;100662.38;;;17.28;80.03
53647;BME280;39550;52.230;5.194;2023-07-31T03:07:14;100663.28;;;17.27;79.99
53647;BME280;39550;52.230;5.194;2023-07-31T03:09:40;100656.34;;;17.26;80.00
53647;BME280;39550;52.230;5.194;2023-07-31T03:12:06;100666.75;;;17.26;80.27
53647;BME280;39550;52.230;5.194;2023-07-31T03:14:31;100657.19;;;17.26;80.17
53647;BME280;39550;52.230;5.194;2023-07-31T03:16:57;100649.41;;;17.25;80.53
53647;BME280;39550;52.230;5.194;2023-07-31T03:19:22;100660.72;;;17.25;80.33
53647;BME280;39550;52.230;5.194;2023-07-31T03:21:47;100652.03;;;17.25;80.00
53647;BME280;39550;52.230;5.194;2023-07-31T03:24:13;100652.06;;;17.23;79.97
53647;BME280;39550;52.230;5.194;2023-07-31T03:26:38;100658.13;;;17.24;80.40
53647;BME280;39550;52.230;5.194;2023-07-31T03:29:07;100655.53;;;17.22;79.85
53647;BME280;39550;52.230;5.194;2023-07-31T03:31:32;100656.44;;;17.23;80.23
53647;BME280;39550;52.230;5.194;2023-07-31T03:33:58;100652.06;;;17.23;80.11
53647;BME280;39550;52.230;5.194;2023-07-31T03:36:23;100646.06;;;17.19;80.04
53647;BME280;39550;52.230;5.194;2023-07-31T03:38:49;100646.09;;;17.18;80.39
53647;BME280;39550;52.230;5.194;2023-07-31T03:41:14;100653.84;;;17.21;80.05
53647;BME280;39550;52.230;5.194;2023-07-31T03:43:39;100647.78;;;17.21;80.37
53647;BME280;39550;52.230;5.194;2023-07-31T03:46:05;100652.13;;;17.20;80.17
53647;BME280;39550;52.230;5.194;2023-07-31T03:48:30;100646.94;;;17.20;80.03
53647;BME280;39550;52.230;5.194;2023-07-31T03:50:56;100641.72;;;17.20;80.24
53647;BME280;39550;52.230;5.194;2023-07-31T03:53:21;100640.84;;;17.19;80.01
53647;BME280;39550;52.230;5.194;2023-07-31T03:55:47;100637.41;;;17.19;80.18
53647;BME280;39550;52.230;5.194;2023-07-31T03:58:12;100630.47;;;17.18;80.05
53647;BME280;39550;52.230;5.194;2023-07-31T04:00:39;100620.97;;;17.17;79.87
53647;BME280;39550;52.230;5.194;2023-07-31T04:03:05;100626.19;;;17.17;80.07
53647;BME280;39550;52.230;5.194;2023-07-31T04:05:32;100627.03;;;17.17;80.03
53647;BME280;39550;52.230;5.194;2023-07-31T04:07:58;100629.66;;;17.16;80.34
53647;BME280;39550;52.230;5.194;2023-07-31T04:10:23;100619.25;;;17.16;79.89
53647;BME280;39550;52.230;5.194;2023-07-31T04:12:49;100625.34;;;17.15;79.92
53647;BME280;39550;52.230;5.194;2023-07-31T04:15:14;100590.81;;;17.07;80.59
53647;BME280;39550;52.230;5.194;2023-07-31T04:17:40;100597.59;;;17.14;79.97
53647;BME280;39550;52.230;5.194;2023-07-31T04:20:05;100594.13;;;17.13;80.25
53647;BME280;39550;52.230;5.194;2023-07-31T04:22:31;100588.97;;;17.12;80.55
53647;BME280;39550;52.230;5.194;2023-07-31T04:24:56;100590.72;;;17.10;80.27
53647;BME280;39550;52.230;5.194;2023-07-31T04:27:22;100595.91;;;17.13;80.29
53647;BME280;39550;52.230;5.194;2023-07-31T04:29:47;100595.94;;;17.11;79.93
53647;BME280;39550;52.230;5.194;2023-07-31T04:32:13;100595.06;;;17.11;80.51
53647;BME280;39550;52.230;5.194;2023-07-31T04:34:41;100604.66;;;17.09;80.03
53647;BME280;39550;52.230;5.194;2023-07-31T04:37:07;100598.50;;;17.13;80.51
53647;BME280;39550;52.230;5.194;2023-07-31T04:39:32;100607.19;;;17.12;80.08
53647;BME280;39550;52.230;5.194;2023-07-31T04:41:57;100593.50;;;17.04;80.21
53647;BME280;39550;52.230;5.194;2023-07-31T04:44:23;100594.22;;;17.10;80.63
53647;BME280;39550;52.230;5.194;2023-07-31T04:46:48;100597.69;;;17.09;80.36
53647;BME280;39550;52.230;5.194;2023-07-31T04:49:13;100591.66;;;17.09;80.11
53647;BME280;39550;52.230;5.194;2023-07-31T04:51:39;100586.44;;;17.09;80.38
53647;BME280;39550;52.230;5.194;2023-07-31T04:54:06;100584.69;;;17.09;80.12
53647;BME280;39550;52.230;5.194;2023-07-31T04:56:31;100579.53;;;17.08;80.22
53647;BME280;39550;52.230;5.194;2023-07-31T04:58:56;100577.78;;;17.07;80.51
53647;BME280;39550;52.230;5.194;2023-07-31T05:01:22;100567.38;;;17.07;80.54
53647;BME280;39550;52.230;5.194;2023-07-31T05:03:47;100565.66;;;17.06;80.39
53647;BME280;39550;52.230;5.194;2023-07-31T05:06:13;100579.56;;;17.06;80.61
53647;BME280;39550;52.230;5.194;2023-07-31T05:08:40;100577.88;;;17.04;80.89
53647;BME280;39550;52.230;5.194;2023-07-31T05:11:06;100574.38;;;17.05;80.16
53647;BME280;39550;52.230;5.194;2023-07-31T05:13:31;100579.59;;;17.05;80.15
53647;BME280;39550;52.230;5.194;2023-07-31T05:15:57;100574.38;;;17.05;80.08
53647;BME280;39550;52.230;5.194;2023-07-31T05:18:22;100568.38;;;17.01;80.65
53647;BME280;39550;52.230;5.194;2023-07-31T05:20:48;100561.41;;;17.01;80.62
53647;BME280;39550;52.230;5.194;2023-07-31T05:23:14;100564.03;;;17.01;80.89
53647;BME280;39550;52.230;5.194;2023-07-31T05:25:39;100564.94;;;17.00;80.88
53647;BME280;39550;52.230;5.194;2023-07-31T05:28:05;100558.00;;;16.99;80.27
53647;BME280;39550;52.230;5.194;2023-07-31T05:30:31;100553.59;;;17.01;80.55
53647;BME280;39550;52.230;5.194;2023-07-31T05:32:56;100552.75;;;17.01;80.90
53647;BME280;39550;52.230;5.194;2023-07-31T05:35:22;100548.44;;;17.00;80.54
53647;BME280;39550;52.230;5.194;2023-07-31T05:37:47;100545.84;;;17.00;80.41
53647;BME280;39550;52.230;5.194;2023-07-31T05:40:12;100522.69;;;16.89;80.41
53647;BME280;39550;52.230;5.194;2023-07-31T05:42:38;100540.69;;;16.98;80.66
53647;BME280;39550;52.230;5.194;2023-07-31T05:45:05;100533.75;;;16.99;80.81
53647;BME280;39550;52.230;5.194;2023-07-31T05:47:30;100537.19;;;16.99;81.16
53647;BME280;39550;52.230;5.194;2023-07-31T05:49:56;100526.91;;;16.95;80.95
53647;BME280;39550;52.230;5.194;2023-07-31T05:52:21;100534.59;;;16.99;80.20
53647;BME280;39550;52.230;5.194;2023-07-31T05:54:47;100537.19;;;16.99;80.65
53647;BME280;39550;52.230;5.194;2023-07-31T05:57:12;100525.94;;;16.99;80.87
53647;BME280;39550;52.230;5.194;2023-07-31T05:59:37;100527.66;;;16.98;80.78
53647;BME280;39550;52.230;5.194;2023-07-31T06:02:03;100519.09;;;16.95;81.26
53647;BME280;39550;52.230;5.194;2023-07-31T06:04:29;100521.59;;;16.98;80.45
53647;BME280;39550;52.230;5.194;2023-07-31T06:06:54;100516.50;;;16.93;80.60
53647;BME280;39550;52.230;5.194;2023-07-31T06:09:20;100525.94;;;16.97;80.71
53647;BME280;39550;52.230;5.194;2023-07-31T06:11:46;100520.72;;;16.97;80.63
53647;BME280;39550;52.230;5.194;2023-07-31T06:14:11;100522.44;;;16.98;80.42
53647;BME280;39550;52.230;5.194;2023-07-31T06:16:37;100509.47;;;16.97;80.64
53647;BME280;39550;52.230;5.194;2023-07-31T06:19:02;100514.69;;;16.97;81.02
53647;BME280;39550;52.230;5.194;2023-07-31T06:21:27;100508.63;;;16.96;80.60
53647;BME280;39550;52.230;5.194;2023-07-31T06:23:53;100513.84;;;16.96;80.89
53647;BME280;39550;52.230;5.194;2023-07-31T06:26:18;100505.09;;;16.99;80.88
53647;BME280;39550;52.230;5.194;2023-07-31T06:28:44;100499.91;;;16.97;80.95
53647;BME280;39550;52.230;5.194;2023-07-31T06:31:09;100503.44;;;16.96;80.58
53647;BME280;39550;52.230;5.194;2023-07-31T06:33:35;100503.44;;;16.96;80.76
53647;BME280;39550;52.230;5.194;2023-07-31T06:36:00;100493.00;;;16.96;80.93
53647;BME280;39550;52.230;5.194;2023-07-31T06:38:26;100490.41;;;16.96;80.77
53647;BME280;39550;52.230;5.194;2023-07-31T06:40:52;100484.28;;;16.97;80.33
53647;BME280;39550;52.230;5.194;2023-07-31T06:43:18;100486.19;;;16.92;80.54
53647;BME280;39550;52.230;5.194;2023-07-31T06:45:43;100492.09;;;16.97;80.56
53647;BME280;39550;52.230;5.194;2023-07-31T06:48:09;100474.78;;;16.96;80.54
53647;BME280;39550;52.230;5.194;2023-07-31T06:50:34;100458.69;;;16.79;81.12
53647;BME280;39550;52.230;5.194;2023-07-31T06:53:00;100475.69;;;16.95;80.53
53647;BME280;39550;52.230;5.194;2023-07-31T06:55:26;100470.47;;;16.95;80.88
53647;BME280;39550;52.230;5.194;2023-07-31T06:57:54;100468.69;;;16.97;80.91
53647;BME280;39550;52.230;5.194;2023-07-31T07:00:21;100474.75;;;16.98;80.42
53647;BME280;39550;52.230;5.194;2023-07-31T07:02:47;100470.41;;;16.98;80.51
53647;BME280;39550;52.230;5.194;2023-07-31T07:05:13;100465.09;;;17.01;80.75
53647;BME280;39550;52.230;5.194;2023-07-31T07:07:39;100469.38;;;17.04;80.60
53647;BME280;39550;52.230;5.194;2023-07-31T07:10:05;100472.03;;;17.02;80.41
53647;BME280;39550;52.230;5.194;2023-07-31T07:12:32;100466.81;;;17.02;80.75
53647;BME280;39550;52.230;5.194;2023-07-31T07:14:58;100463.41;;;17.00;80.59
53647;BME280;39550;52.230;5.194;2023-07-31T07:17:24;100456.56;;;16.96;80.38
53647;BME280;39550;52.230;5.194;2023-07-31T07:19:49;100460.88;;;16.97;80.63
53647;BME280;39550;52.230;5.194;2023-07-31T07:22:15;100465.19;;;16.98;80.87
53647;BME280;39550;52.230;5.194;2023-07-31T07:24:41;100456.56;;;16.96;80.83
53647;BME280;39550;52.230;5.194;2023-07-31T07:27:07;100468.69;;;16.97;80.63
53647;BME280;39550;52.230;5.194;2023-07-31T07:29:33;100465.19;;;16.98;81.09
53647;BME280;39550;52.230;5.194;2023-07-31T07:31:59;100459.97;;;16.98;80.53
53647;BME280;39550;52.230;5.194;2023-07-31T07:34:28;100460.84;;;16.99;80.80
53647;BME280;39550;52.230;5.194;2023-07-31T07:36:54;100468.63;;;17.00;80.83
53647;BME280;39550;52.230;5.194;2023-07-31T07:39:19;100456.50;;;16.99;80.61
53647;BME280;39550;52.230;5.194;2023-07-31T07:41:45;100460.81;;;17.00;80.77
53647;BME280;39550;52.230;5.194;2023-07-31T07:44:11;100459.91;;;17.01;81.12
53647;BME280;39550;52.230;5.194;2023-07-31T07:46:36;100450.41;;;17.00;81.00
53647;BME280;39550;52.230;5.194;2023-07-31T07:49:01;100454.69;;;17.01;81.44
53647;BME280;39550;52.230;5.194;2023-07-31T07:51:27;100451.19;;;17.02;81.10
53647;BME280;39550;52.230;5.194;2023-07-31T07:53:52;100451.19;;;17.02;81.05
53647;BME280;39550;52.230;5.194;2023-07-31T07:56:18;100452.09;;;17.01;81.23
53647;BME280;39550;52.230;5.194;2023-07-31T07:58:43;100457.28;;;17.01;81.03
53647;BME280;39550;52.230;5.194;2023-07-31T08:01:08;100450.28;;;17.05;81.05
53647;BME280;39550;52.230;5.194;2023-07-31T08:03:34;100446.69;;;17.09;81.04
53647;BME280;39550;52.230;5.194;2023-07-31T08:06:00;100442.44;;;17.07;81.00
53647;BME280;39550;52.230;5.194;2023-07-31T08:08:26;100443.22;;;17.10;81.23
53647;BME280;39550;52.230;5.194;2023-07-31T08:10:51;100436.34;;;17.08;81.32
53647;BME280;39550;52.230;5.194;2023-07-31T08:13:18;100428.59;;;17.05;80.76
53647;BME280;39550;52.230;5.194;2023-07-31T08:15:44;100439.72;;;17.10;81.27
53647;BME280;39550;52.230;5.194;2023-07-31T08:18:10;100430.38;;;17.02;81.43
53647;BME280;39550;52.230;5.194;2023-07-31T08:20:37;100431.97;;;17.08;81.00
53647;BME280;39550;52.230;5.194;2023-07-31T08:23:02;100434.53;;;17.10;81.31
53647;BME280;39550;52.230;5.194;2023-07-31T08:25:27;100425.97;;;17.06;81.14
53647;BME280;39550;52.230;5.194;2023-07-31T08:27:54;100437.13;;;17.10;81.07
53647;BME280;39550;52.230;5.194;2023-07-31T08:30:21;100427.59;;;17.10;81.07
53647;BME280;39550;52.230;5.194;2023-07-31T08:32:47;100427.56;;;17.12;81.41
53647;BME280;39550;52.230;5.194;2023-07-31T08:35:12;100424.09;;;17.11;81.53
53647;BME280;39550;52.230;5.194;2023-07-31T08:37:39;100430.16;;;17.12;80.94
53647;BME280;39550;52.230;5.194;2023-07-31T08:40:05;100419.75;;;17.12;81.08
53647;BME280;39550;52.230;5.194;2023-07-31T08:42:31;100422.22;;;17.16;81.12
53647;BME280;39550;52.230;5.194;2023-07-31T08:44:58;100418.03;;;17.11;81.47
53647;BME280;39550;52.230;5.194;2023-07-31T08:47:27;100421.47;;;17.13;81.52
53647;BME280;39550;52.230;5.194;2023-07-31T08:49:55;100416.06;;;17.19;81.13
53647;BME280;39550;52.230;5.194;2023-07-31T08:52:21;100430.03;;;17.16;80.88
53647;BME280;39550;52.230;5.194;2023-07-31T08:54:47;100418.03;;;17.11;81.08
53647;BME280;39550;52.230;5.194;2023-07-31T08:57:13;100421.38;;;17.16;81.13
53647;BME280;39550;52.230;5.194;2023-07-31T08:59:40;100416.91;;;17.19;81.63
53647;BME280;39550;52.230;5.194;2023-07-31T09:02:08;100416.91;;;17.19;81.46
53647;BME280;39550;52.230;5.194;2023-07-31T09:04:35;100420.41;;;17.20;81.36
53647;BME280;39550;52.230;5.194;2023-07-31T09:07:02;100421.28;;;17.19;81.63
53647;BME280;39550;52.230;5.194;2023-07-31T09:09:30;100419.56;;;17.18;81.85
53647;BME280;39550;52.230;5.194;2023-07-31T09:11:57;100421.28;;;17.19;81.04
53647;BME280;39550;52.230;5.194;2023-07-31T09:14:25;100416.06;;;17.19;81.51
53647;BME280;39550;52.230;5.194;2023-07-31T09:16:52;100421.38;;;17.16;81.67
53647;BME280;39550;52.230;5.194;2023-07-31T09:19:35;100410.97;;;17.16;81.33
53647;BME280;39550;52.230;5.194;2023-07-31T09:22:03;100411.03;;;17.13;81.24
53647;BME280;39550;52.230;5.194;2023-07-31T09:24:30;100409.25;;;17.15;81.76
53647;BME280;39550;52.230;5.194;2023-07-31T09:26:57;100405.84;;;17.13;81.16
53647;BME280;39550;52.230;5.194;2023-07-31T09:29:24;100414.44;;;17.15;81.23
53647;BME280;39550;52.230;5.194;2023-07-31T09:31:50;100417.09;;;17.13;81.44
53647;BME280;39550;52.230;5.194;2023-07-31T09:34:16;100416.16;;;17.16;81.91
53647;BME280;39550;52.230;5.194;2023-07-31T09:36:46;100410.91;;;17.17;81.30
53647;BME280;39550;52.230;5.194;2023-07-31T09:39:13;100410.97;;;17.16;81.87
53647;BME280;39550;52.230;5.194;2023-07-31T09:41:43;100404.03;;;17.15;81.71
53647;BME280;39550;52.230;5.194;2023-07-31T09:44:09;100412.72;;;17.14;81.72
53647;BME280;39550;52.230;5.194;2023-07-31T09:46:35;100415.31;;;17.14;82.03
53647;BME280;39550;52.230;5.194;2023-07-31T09:49:09;100409.19;;;17.16;81.77
53647;BME280;39550;52.230;5.194;2023-07-31T09:51:40;100409.09;;;17.21;81.39
53647;BME280;39550;52.230;5.194;2023-07-31T09:54:15;100410.06;;;17.17;81.76
53647;BME280;39550;52.230;5.194;2023-07-31T09:56:44;100412.66;;;17.17;82.12
53647;BME280;39550;52.230;5.194;2023-07-31T09:59:16;100409.25;;;17.15;81.77
53647;BME280;39550;52.230;5.194;2023-07-31T10:01:43;100397.09;;;17.14;81.85
53647;BME280;39550;52.230;5.194;2023-07-31T10:04:10;100405.84;;;17.13;81.99
53647;BME280;39550;52.230;5.194;2023-07-31T10:06:36;100404.13;;;17.12;82.21
53647;BME280;39550;52.230;5.194;2023-07-31T10:09:06;100404.03;;;17.15;81.77
53647;BME280;39550;52.230;5.194;2023-07-31T10:11:38;100410.88;;;17.19;81.50
53647;BME280;39550;52.230;5.194;2023-07-31T10:14:07;100398.69;;;17.19;82.47
53647;BME280;39550;52.230;5.194;2023-07-31T10:16:35;100394.25;;;17.23;83.76
53647;BME280;39550;52.230;5.194;2023-07-31T10:19:01;100402.16;;;17.20;83.43
53647;BME280;39550;52.230;5.194;2023-07-31T10:21:27;100407.97;;;17.30;84.73
53647;BME280;39550;52.230;5.194;2023-07-31T10:23:53;100398.69;;;17.21;86.47
53647;BME280;39550;52.230;5.194;2023-07-31T10:26:23;100404.69;;;17.23;86.89
53647;BME280;39550;52.230;5.194;2023-07-31T10:28:51;100402.16;;;17.20;87.08
53647;BME280;39550;52.230;5.194;2023-07-31T10:31:18;100400.44;;;17.19;86.38
53647;BME280;39550;52.230;5.194;2023-07-31T10:33:44;100399.47;;;17.23;86.02
53647;BME280;39550;52.230;5.194;2023-07-31T10:36:17;100393.38;;;17.24;85.76
53647;BME280;39550;52.230;5.194;2023-07-31T10:38:43;100398.59;;;17.24;85.53
53647;BME280;39550;52.230;5.194;2023-07-31T10:41:09;100388.91;;;17.29;84.62
53647;BME280;39550;52.230;5.194;2023-07-31T10:43:36;100391.56;;;17.26;85.11
53647;BME280;39550;52.230;5.194;2023-07-31T10:46:07;100387.34;;;17.22;85.33
53647;BME280;39550;52.230;5.194;2023-07-31T10:48:34;100384.91;;;17.16;85.37
53647;BME280;39550;52.230;5.194;2023-07-31T10:51:00;100405.66;;;17.19;85.07
53647;BME280;39550;52.230;5.194;2023-07-31T10:53:30;100407.38;;;17.20;84.66
53647;BME280;39550;52.230;5.194;2023-07-31T10:56:14;100408.25;;;17.19;84.41
53647;BME280;39550;52.230;5.194;2023-07-31T10:58:44;100409.88;;;17.23;84.93
53647;BME280;39550;52.230;5.194;2023-07-31T11:01:11;100403.88;;;17.21;84.41
53647;BME280;39550;52.230;5.194;2023-07-31T11:03:46;100403.00;;;17.21;84.20
53647;BME280;39550;52.230;5.194;2023-07-31T11:06:14;100404.78;;;17.20;83.64
53647;BME280;39550;52.230;5.194;2023-07-31T11:08:43;100403.88;;;17.21;83.88
53647;BME280;39550;52.230;5.194;2023-07-31T11:11:10;100409.09;;;17.21;84.48
53647;BME280;39550;52.230;5.194;2023-07-31T11:16:10;100404.72;;;17.22;83.89
53647;BME280;39550;52.230;5.194;2023-07-31T11:18:39;100403.78;;;17.24;84.62
53647;BME280;39550;52.230;5.194;2023-07-31T11:21:04;100400.31;;;17.25;83.72
53647;BME280;39550;52.230;5.194;2023-07-31T11:23:30;100395.09;;;17.25;84.67
53647;BME280;39550;52.230;5.194;2023-07-31T11:25:59;100393.28;;;17.27;84.69
53647;BME280;39550;52.230;5.194;2023-07-31T11:28:24;100392.41;;;17.28;84.36
53647;BME280;39550;52.230;5.194;2023-07-31T11:30:51;100395.00;;;17.28;83.62
53647;BME280;39550;52.230;5.194;2023-07-31T11:33:17;100388.81;;;17.32;83.36
53647;BME280;39550;52.230;5.194;2023-07-31T11:35:47;100386.03;;;17.39;83.60
53647;BME280;39550;52.230;5.194;2023-07-31T11:38:32;100381.81;;;17.34;82.79
53647;BME280;39550;52.230;5.194;2023-07-31T11:41:00;100385.09;;;17.41;83.33
53647;BME280;39550;52.230;5.194;2023-07-31T11:43:27;100384.28;;;17.39;82.89
53647;BME280;39550;52.230;5.194;2023-07-31T11:46:00;100387.84;;;17.36;82.99
53647;BME280;39550;52.230;5.194;2023-07-31T11:48:31;100396.59;;;17.34;82.90
53647;BME280;39550;52.230;5.194;2023-07-31T11:50:59;100380.13;;;17.33;83.21
53647;BME280;39550;52.230;5.194;2023-07-31T11:55:52;100383.69;;;17.29;84.39
53647;BME280;39550;52.230;5.194;2023-07-31T11:58:19;100394.91;;;17.31;84.32
53647;BME280;39550;52.230;5.194;2023-07-31T12:00:45;100388.72;;;17.35;82.94
53647;BME280;39550;52.230;5.194;2023-07-31T12:03:12;100381.69;;;17.39;82.72
53647;BME280;39550;52.230;5.194;2023-07-31T12:05:38;100393.00;;;17.38;82.45
53647;BME280;39550;52.230;5.194;2023-07-31T12:08:10;100386.13;;;17.35;82.87
53647;BME280;39550;52.230;5.194;2023-07-31T12:10:38;100394.81;;;17.34;83.12
53647;BME280;39550;52.230;5.194;2023-07-31T12:13:12;100401.00;;;17.30;84.41
53647;BME280;39550;52.230;5.194;2023-07-31T12:15:45;100403.69;;;17.27;83.46
53647;BME280;39550;52.230;5.194;2023-07-31T12:18:19;100390.69;;;17.27;83.32
53647;BME280;39550;52.230;5.194;2023-07-31T12:20:47;100393.19;;;17.30;83.57
53647;BME280;39550;52.230;5.194;2023-07-31T12:23:17;100388.03;;;17.29;83.27
53647;BME280;39550;52.230;5.194;2023-07-31T12:25:43;100372.44;;;17.27;83.76
53647;BME280;39550;52.230;5.194;2023-07-31T12:28:10;100375.88;;;17.29;83.33
53647;BME280;39550;52.230;5.194;2023-07-31T12:30:40;100371.63;;;17.27;83.79
53647;BME280;39550;52.230;5.194;2023-07-31T12:33:12;100353.34;;;17.28;83.37
53647;BME280;39550;52.230;5.194;2023-07-31T12:35:46;100358.34;;;17.34;83.05
53647;BME280;39550;52.230;5.194;2023-07-31T12:38:13;100351.31;;;17.38;82.76
53647;BME280;39550;52.230;5.194;2023-07-31T12:40:40;100344.44;;;17.35;83.30
53647;BME280;39550;52.230;5.194;2023-07-31T12:43:06;100358.25;;;17.38;83.42
53647;BME280;39550;52.230;5.194;2023-07-31T12:45:33;100361.78;;;17.36;82.96
53647;BME280;39550;52.230;5.194;2023-07-31T12:47:59;100370.41;;;17.39;82.97
53647;BME280;39550;52.230;5.194;2023-07-31T12:50:26;100348.78;;;17.36;82.96
53647;BME280;39550;52.230;5.194;2023-07-31T12:52:55;100346.16;;;17.36;83.14
53647;BME280;39550;52.230;5.194;2023-07-31T12:55:21;100337.47;;;17.36;82.87
53647;BME280;39550;52.230;5.194;2023-07-31T12:57:47;100341.84;;;17.35;82.96